Time;durP1;ratioP1;P1;durP2;ratioP2;P2;SDS_P1;SDS_P2;PMS_P1;PMS_P2;Temp;Humidity;BMP_temperature;BMP_pressure;BME280_temperature;BME280_humidity;BME280_pressure;Samples;Min_cycle;Max_cycle;Signal;HPM_P1;HPM_P2
2021/12/24 00:00:19;;;;;;;16.00;8.10;;;5.70;99.90;;;;;;5061066;28;20055;-85
2021/12/24 00:02:45;;;;;;;14.38;7.22;;;5.70;99.90;;;;;;5056221;28;20032;-85
2021/12/24 00:05:12;;;;;;;16.33;8.05;;;5.70;99.90;;;;;;5052490;28;20457;-85
2021/12/24 00:07:39;;;;;;;13.43;7.40;;;5.70;99.90;;;;;;5020991;28;20062;-85
2021/12/24 00:10:10;;;;;;;14.95;7.15;;;5.70;99.90;;;;;;5048483;28;20089;-85
2021/12/24 00:12:42;;;;;;;15.20;7.57;;;5.60;99.90;;;;;;5063669;28;20409;-85
2021/12/24 00:15:26;;;;;;;15.18;8.13;;;5.60;99.90;;;;;;5078540;28;20035;-85
2021/12/24 00:17:59;;;;;;;15.15;7.40;;;5.60;99.90;;;;;;5060412;28;20067;-85
2021/12/24 00:21:05;;;;;;;12.30;6.22;;;5.60;99.90;;;;;;5038481;28;20024;-85
2021/12/24 00:37:16;;;;;;;15.13;7.25;;;5.60;99.90;;;;;;5086080;28;20109;-84
2021/12/24 00:39:52;;;;;;;13.52;6.38;;;5.60;99.90;;;;;;5052937;28;20105;-85
2021/12/24 00:42:17;;;;;;;11.90;6.78;;;5.60;99.90;;;;;;5089543;28;20486;-85
2021/12/24 00:44:43;;;;;;;15.05;7.05;;;5.60;99.90;;;;;;5040418;28;20029;-85
2021/12/24 00:47:09;;;;;;;14.20;7.38;;;5.60;99.90;;;;;;5031746;28;20033;-84
2021/12/24 00:49:35;;;;;;;15.25;7.80;;;5.60;99.90;;;;;;5040906;28;20056;-85
2021/12/24 00:52:23;;;;;;;13.95;7.35;;;5.60;99.90;;;;;;5058564;28;20028;-85
2021/12/24 00:55:09;;;;;;;16.42;7.53;;;5.70;99.90;;;;;;5065788;28;20024;-85
2021/12/24 00:57:36;;;;;;;16.77;7.97;;;5.70;99.90;;;;;;5040662;28;20155;-84
2021/12/24 01:00:06;;;;;;;13.93;7.32;;;5.80;99.90;;;;;;5072357;28;20423;-85
2021/12/24 01:02:32;;;;;;;20.65;7.10;;;5.80;99.90;;;;;;5047012;28;20036;-85
2021/12/24 01:04:58;;;;;;;15.98;8.10;;;5.90;99.90;;;;;;5074659;28;20499;-85
2021/12/24 01:07:23;;;;;;;17.58;7.55;;;5.90;99.90;;;;;;5034951;28;20044;-85
2021/12/24 01:09:49;;;;;;;16.13;7.95;;;5.90;99.90;;;;;;5069873;28;20033;-85
2021/12/24 01:12:15;;;;;;;14.30;7.55;;;5.90;99.90;;;;;;5062318;28;20028;-85
2021/12/24 01:14:41;;;;;;;15.25;7.72;;;5.90;99.90;;;;;;5034691;28;20087;-85
2021/12/24 01:17:19;;;;;;;16.55;7.40;;;6.00;99.90;;;;;;5038591;28;20029;-85
2021/12/24 01:19:48;;;;;;;17.25;7.63;;;6.00;99.90;;;;;;5047370;28;20389;-85
2021/12/24 01:24:53;;;;;;;18.48;7.78;;;6.00;99.90;;;;;;5076277;28;20044;-85
2021/12/24 01:29:59;;;;;;;12.55;7.03;;;6.10;99.90;;;;;;5068646;28;20420;-85
2021/12/24 01:38:11;;;;;;;16.45;7.82;;;6.10;99.90;;;;;;5061641;28;20094;-85
2021/12/24 01:43:20;;;;;;;15.20;7.53;;;6.10;99.90;;;;;;5064917;28;20036;-84
2021/12/24 01:45:48;;;;;;;15.80;7.10;;;6.10;99.90;;;;;;5057829;28;20032;-85
2021/12/24 01:48:14;;;;;;;14.43;7.28;;;6.10;99.90;;;;;;5058223;28;20300;-84
2021/12/24 01:50:45;;;;;;;20.30;7.55;;;6.10;99.90;;;;;;5059446;28;20024;-85
2021/12/24 01:53:13;;;;;;;19.02;7.65;;;6.10;99.90;;;;;;5062210;28;20031;-84
2021/12/24 01:55:39;;;;;;;16.95;7.07;;;6.10;99.90;;;;;;5057776;28;20027;-85
2021/12/24 01:58:05;;;;;;;17.30;7.88;;;6.10;99.90;;;;;;5078164;28;20615;-85
2021/12/24 02:00:39;;;;;;;15.27;8.00;;;6.20;99.90;;;;;;5074526;28;20418;-85
2021/12/24 02:03:07;;;;;;;16.65;7.75;;;6.20;99.90;;;;;;5066813;28;20032;-85
2021/12/24 02:05:33;;;;;;;19.73;8.18;;;6.10;99.90;;;;;;5040933;28;20560;-85
2021/12/24 02:07:59;;;;;;;17.70;8.00;;;6.10;99.90;;;;;;5034772;28;20029;-84
2021/12/24 02:10:25;;;;;;;17.80;7.72;;;6.10;99.90;;;;;;5058315;28;20060;-84
2021/12/24 02:12:52;;;;;;;18.05;8.45;;;6.10;99.90;;;;;;5069538;28;20079;-85
2021/12/24 02:15:28;;;;;;;17.70;7.95;;;6.10;99.90;;;;;;5062437;28;20435;-85
2021/12/24 02:28:39;;;;;;;15.18;7.70;;;6.00;99.90;;;;;;5073078;28;20040;-85
2021/12/24 02:31:14;;;;;;;17.50;8.13;;;6.00;99.90;;;;;;5055640;28;20124;-84
2021/12/24 02:33:41;;;;;;;16.10;8.32;;;6.00;99.90;;;;;;5055169;28;20112;-85
2021/12/24 02:36:07;;;;;;;18.10;8.32;;;6.00;99.90;;;;;;5053447;28;20107;-85
2021/12/24 02:38:33;;;;;;;16.15;7.70;;;6.10;99.90;;;;;;5048773;28;20032;-86
2021/12/24 02:40:59;;;;;;;20.13;8.38;;;6.00;99.90;;;;;;5066307;28;20040;-86
2021/12/24 02:43:29;;;;;;;24.55;9.65;;;6.10;99.90;;;;;;5082503;28;20044;-86
2021/12/24 02:45:58;;;;;;;14.80;7.77;;;6.10;99.90;;;;;;5097126;28;20035;-85
2021/12/24 02:53:59;;;;;;;19.05;8.45;;;6.10;99.90;;;;;;5058124;28;20499;-86
2021/12/24 02:56:27;;;;;;;24.33;8.68;;;6.10;99.90;;;;;;5054965;28;20024;-86
2021/12/24 02:58:53;;;;;;;16.95;8.45;;;6.20;99.90;;;;;;5054921;28;20028;-87
2021/12/24 03:01:25;;;;;;;20.15;8.50;;;6.10;99.90;;;;;;5025855;28;20036;-86
2021/12/24 03:03:51;;;;;;;19.42;9.10;;;6.20;99.90;;;;;;5035058;28;20024;-87
2021/12/24 03:06:38;;;;;;;19.25;8.95;;;6.20;99.90;;;;;;5002331;28;20037;-86
2021/12/24 03:09:07;;;;;;;19.88;10.45;;;6.20;99.90;;;;;;5018211;28;20420;-87
2021/12/24 03:11:34;;;;;;;18.98;8.82;;;6.20;99.90;;;;;;5018189;28;20025;-87
2021/12/24 03:14:01;;;;;;;21.25;10.07;;;6.20;99.90;;;;;;5018408;28;20033;-89
2021/12/24 03:16:27;;;;;;;18.42;8.68;;;6.20;99.90;;;;;;5035100;28;20448;-87
2021/12/24 03:18:53;;;;;;;17.85;9.05;;;6.20;99.90;;;;;;5018233;28;20036;-87
2021/12/24 03:21:30;;;;;;;19.33;9.02;;;6.20;99.90;;;;;;5034639;28;20400;-87
2021/12/24 03:26:39;;;;;;;18.75;8.15;;;6.20;99.90;;;;;;5052716;28;20128;-86
2021/12/24 03:29:07;;;;;;;20.85;9.63;;;6.20;99.90;;;;;;5019442;28;20033;-87
2021/12/24 03:31:34;;;;;;;20.25;9.32;;;6.20;99.90;;;;;;5018283;28;20040;-86
2021/12/24 03:34:00;;;;;;;22.48;9.23;;;6.20;99.90;;;;;;5034517;28;20032;-86
2021/12/24 03:36:26;;;;;;;21.15;9.25;;;6.20;99.90;;;;;;5052179;28;20021;-87
2021/12/24 03:38:53;;;;;;;17.92;9.30;;;6.20;99.90;;;;;;5017495;28;20036;-86
2021/12/24 03:41:19;;;;;;;19.80;9.25;;;6.30;99.90;;;;;;5034283;28;20025;-87
2021/12/24 03:43:45;;;;;;;21.83;10.73;;;6.30;99.90;;;;;;5017783;28;20033;-87
2021/12/24 03:46:17;;;;;;;18.45;9.73;;;6.30;99.90;;;;;;5033947;28;20119;-88
2021/12/24 03:49:20;;;;;;;21.27;10.65;;;6.30;99.90;;;;;;5017716;28;20086;-87
2021/12/24 03:56:47;;;;;;;22.90;10.38;;;6.30;99.90;;;;;;5050959;28;20043;-89
2021/12/24 03:59:13;;;;;;;28.35;10.40;;;6.30;99.90;;;;;;5034833;28;20029;-86
2021/12/24 04:01:40;;;;;;;19.42;9.75;;;6.30;99.90;;;;;;5017225;28;20408;-87
2021/12/24 04:04:12;;;;;;;23.80;9.70;;;6.30;99.90;;;;;;5017286;28;20033;-88
2021/12/24 04:06:37;;;;;;;22.42;10.95;;;6.30;99.90;;;;;;5017100;28;20044;-87
2021/12/24 04:09:06;;;;;;;23.60;10.43;;;6.30;99.90;;;;;;5033660;28;20090;-87
2021/12/24 04:11:32;;;;;;;23.33;10.57;;;6.30;99.90;;;;;;5033492;28;20021;-88
2021/12/24 04:14:00;;;;;;;30.00;11.73;;;6.30;99.90;;;;;;5033685;28;20025;-88
2021/12/24 04:16:28;;;;;;;20.10;9.95;;;6.30;99.90;;;;;;5033209;28;20031;-87
2021/12/24 04:27:28;;;;;;;20.83;10.43;;;6.30;99.90;;;;;;4989337;28;20026;-88
2021/12/24 04:30:02;;;;;;;21.30;11.07;;;6.30;99.90;;;;;;4989926;28;20466;-86
2021/12/24 04:32:49;;;;;;;28.15;10.95;;;6.30;99.90;;;;;;5031459;28;20087;-87
2021/12/24 04:35:31;;;;;;;22.35;10.20;;;6.30;99.90;;;;;;5031739;28;20044;-86
2021/12/24 04:51:44;;;;;;;28.17;11.07;;;6.30;99.90;;;;;;5016252;28;20183;-86
2021/12/24 05:04:56;;;;;;;23.83;10.25;;;6.30;99.90;;;;;;5029875;28;20116;-86
2021/12/24 05:09:47;;;;;;;21.77;11.25;;;6.30;99.90;;;;;;5030859;28;20040;-89
2021/12/24 05:12:13;;;;;;;31.75;11.82;;;6.30;99.90;;;;;;5029802;28;20402;-86
2021/12/24 05:14:39;;;;;;;27.33;11.75;;;6.30;99.90;;;;;;4996637;28;20033;-87
2021/12/24 05:17:21;;;;;;;27.88;10.98;;;6.30;99.90;;;;;;5029335;28;20029;-87
2021/12/24 05:22:34;;;;;;;30.27;12.07;;;6.30;99.90;;;;;;5030859;28;20094;-87
2021/12/24 05:25:01;;;;;;;29.00;11.90;;;6.30;99.90;;;;;;5029256;28;20025;-86
2021/12/24 05:27:27;;;;;;;26.48;11.30;;;6.30;99.90;;;;;;5029349;28;20034;-86
2021/12/24 05:29:54;;;;;;;26.13;11.18;;;6.30;99.90;;;;;;5029326;28;20036;-87
2021/12/24 05:32:20;;;;;;;30.30;11.13;;;6.30;99.90;;;;;;5029230;28;20029;-86
2021/12/24 05:34:46;;;;;;;30.60;11.38;;;6.30;99.90;;;;;;5012642;28;20026;-86
2021/12/24 05:37:12;;;;;;;26.27;11.52;;;6.30;99.90;;;;;;5029245;28;20022;-86
2021/12/24 05:39:37;;;;;;;28.70;11.20;;;6.30;99.90;;;;;;5029145;28;20069;-87
2021/12/24 05:42:07;;;;;;;25.65;10.77;;;6.30;99.90;;;;;;5030378;28;20026;-87
2021/12/24 05:44:33;;;;;;;24.65;10.07;;;6.30;99.90;;;;;;5012884;28;20119;-88
2021/12/24 05:47:02;;;;;;;29.25;11.13;;;6.30;99.90;;;;;;5012886;28;20053;-86
2021/12/24 05:49:28;;;;;;;29.48;11.27;;;6.30;99.90;;;;;;5029202;28;20393;-87
2021/12/24 05:51:53;;;;;;;23.75;10.88;;;6.30;99.90;;;;;;5028884;28;20124;-87
2021/12/24 05:54:22;;;;;;;25.67;11.27;;;6.30;99.90;;;;;;5029305;28;20032;-86
2021/12/24 05:56:51;;;;;;;24.65;11.38;;;6.20;99.90;;;;;;5029110;28;20429;-87
2021/12/24 05:59:17;;;;;;;23.17;10.13;;;6.30;99.90;;;;;;4996412;28;20038;-86
2021/12/24 06:01:42;;;;;;;31.77;13.30;;;6.20;99.90;;;;;;5031345;28;20127;-87
2021/12/24 06:04:08;;;;;;;25.33;11.75;;;6.20;99.90;;;;;;5032948;28;20037;-86
2021/12/24 06:06:33;;;;;;;28.98;10.45;;;6.20;99.90;;;;;;5015896;28;20025;-88
2021/12/24 06:08:59;;;;;;;21.25;11.00;;;6.20;99.90;;;;;;5032387;28;20482;-86
2021/12/24 06:11:25;;;;;;;34.40;13.05;;;6.20;99.90;;;;;;5032698;28;20399;-86
2021/12/24 06:13:54;;;;;;;28.05;11.23;;;6.20;99.90;;;;;;5032888;28;20443;-86
2021/12/24 06:16:20;;;;;;;20.05;10.13;;;6.10;99.90;;;;;;5032432;28;20026;-86
2021/12/24 06:18:46;;;;;;;28.88;10.60;;;6.10;99.90;;;;;;5032377;28;20100;-86
2021/12/24 06:21:11;;;;;;;24.13;10.82;;;6.10;99.90;;;;;;5032087;28;20494;-86
2021/12/24 06:23:41;;;;;;;22.75;10.15;;;6.10;99.90;;;;;;5032380;28;20029;-86
2021/12/24 06:26:07;;;;;;;24.98;11.23;;;6.10;99.90;;;;;;5032427;28;20029;-88
2021/12/24 06:28:33;;;;;;;22.98;10.95;;;6.10;99.90;;;;;;5015738;28;20029;-87
2021/12/24 06:31:03;;;;;;;26.00;11.10;;;6.10;99.90;;;;;;5015567;28;20487;-87
2021/12/24 06:33:29;;;;;;;23.58;11.05;;;6.10;99.90;;;;;;5032093;28;20117;-86
2021/12/24 06:35:56;;;;;;;25.20;11.15;;;6.10;99.90;;;;;;5032075;28;20029;-88
2021/12/24 06:38:23;;;;;;;26.70;11.25;;;6.10;99.90;;;;;;5015545;28;20033;-86
2021/12/24 06:40:48;;;;;;;22.88;10.65;;;6.10;99.90;;;;;;5031912;28;20029;-87
2021/12/24 06:43:14;;;;;;;26.83;11.13;;;6.10;99.90;;;;;;5033144;28;20029;-87
2021/12/24 06:45:40;;;;;;;29.45;12.40;;;6.10;99.90;;;;;;5032087;28;20026;-87
2021/12/24 06:48:06;;;;;;;27.95;11.00;;;6.10;99.90;;;;;;5047205;28;20515;-88
2021/12/24 06:50:33;;;;;;;27.60;10.95;;;6.10;99.90;;;;;;5054451;28;20404;-87
2021/12/24 06:52:59;;;;;;;30.02;10.93;;;6.10;99.90;;;;;;5055375;28;20382;-87
2021/12/24 06:55:25;;;;;;;23.08;11.00;;;6.20;99.90;;;;;;5040318;28;20031;-86
2021/12/24 06:57:52;;;;;;;30.23;11.82;;;6.10;99.90;;;;;;5056690;28;20140;-87
2021/12/24 07:00:21;;;;;;;30.42;11.75;;;6.10;99.90;;;;;;5039598;28;20115;-87
2021/12/24 07:02:47;;;;;;;29.02;11.95;;;6.20;99.90;;;;;;5039836;28;20098;-87
2021/12/24 07:05:15;;;;;;;23.95;11.15;;;6.10;99.90;;;;;;5039635;28;20032;-87
2021/12/24 07:07:41;;;;;;;37.58;12.30;;;6.10;99.90;;;;;;5056444;28;20115;-87
2021/12/24 07:10:07;;;;;;;27.45;11.23;;;6.10;99.90;;;;;;5056275;28;20527;-87
2021/12/24 07:12:33;;;;;;;26.70;11.98;;;6.10;99.90;;;;;;5050393;28;20057;-87
2021/12/24 07:14:59;;;;;;;29.17;12.07;;;6.10;99.90;;;;;;5042819;28;20027;-88
2021/12/24 07:17:26;;;;;;;27.85;11.85;;;6.10;99.90;;;;;;5039669;28;20769;-87
2021/12/24 07:19:51;;;;;;;27.92;11.65;;;6.10;99.90;;;;;;5056204;28;20550;-87
2021/12/24 07:22:18;;;;;;;30.08;12.50;;;6.10;99.90;;;;;;5055938;28;20029;-87
2021/12/24 07:24:44;;;;;;;24.13;11.18;;;6.10;99.90;;;;;;5055969;28;20111;-86
2021/12/24 07:27:11;;;;;;;32.63;11.98;;;6.10;99.90;;;;;;5072803;28;20503;-88
2021/12/24 07:29:37;;;;;;;30.60;11.50;;;6.10;99.90;;;;;;5054253;28;20035;-87
2021/12/24 07:32:03;;;;;;;23.85;11.30;;;6.10;99.90;;;;;;5037617;28;20029;-87
2021/12/24 07:34:29;;;;;;;27.90;10.80;;;6.10;99.90;;;;;;5054103;28;20021;-87
2021/12/24 07:36:55;;;;;;;28.30;11.73;;;6.10;99.90;;;;;;5037633;28;20036;-88
2021/12/24 07:39:21;;;;;;;28.17;11.20;;;6.10;99.90;;;;;;5037265;28;20397;-87
2021/12/24 07:41:48;;;;;;;22.80;10.20;;;6.10;99.90;;;;;;5022583;28;20036;-89
2021/12/24 07:44:13;;;;;;;28.42;11.77;;;6.10;99.90;;;;;;5004214;28;20612;-87
2021/12/24 07:46:45;;;;;;;21.75;10.15;;;6.10;99.90;;;;;;5020092;28;20135;-88
2021/12/24 07:49:19;;;;;;;24.88;10.90;;;6.10;99.90;;;;;;5042151;28;20467;-87
2021/12/24 07:54:47;;;;;;;27.65;11.57;;;6.10;99.90;;;;;;5040272;28;20547;-87
2021/12/24 07:57:14;;;;;;;24.15;9.52;;;6.10;99.90;;;;;;5033484;28;20058;-88
2021/12/24 07:59:41;;;;;;;28.30;11.95;;;6.10;99.90;;;;;;5057327;28;20497;-89
2021/12/24 08:02:14;;;;;;;22.63;10.93;;;6.10;99.90;;;;;;5016632;28;20037;-89
2021/12/24 08:04:41;;;;;;;32.45;11.13;;;6.10;99.90;;;;;;5062467;28;20479;-89
2021/12/24 08:07:08;;;;;;;22.05;10.25;;;6.10;99.90;;;;;;5049154;28;20045;-89
2021/12/24 08:09:37;;;;;;;22.38;10.07;;;6.10;99.90;;;;;;5035903;28;20032;-87
2021/12/24 08:12:07;;;;;;;31.23;10.30;;;6.10;99.90;;;;;;5036575;28;20511;-87
2021/12/24 08:14:33;;;;;;;24.05;9.85;;;6.10;99.90;;;;;;5049027;28;20089;-87
2021/12/24 08:16:59;;;;;;;26.17;10.07;;;6.10;99.90;;;;;;4999816;28;20025;-82
2021/12/24 08:19:24;;;;;;;20.55;9.85;;;6.10;99.90;;;;;;5025366;28;20033;-83
2021/12/24 08:21:52;;;;;;;23.60;10.63;;;6.10;99.90;;;;;;5041854;28;20087;-84
2021/12/24 08:24:18;;;;;;;23.05;10.75;;;6.10;99.90;;;;;;5047110;28;20496;-83
2021/12/24 08:26:44;;;;;;;24.83;10.43;;;6.10;99.90;;;;;;5051918;28;20039;-84
2021/12/24 08:29:12;;;;;;;21.00;10.63;;;6.10;99.90;;;;;;5042053;28;20033;-84
2021/12/24 08:31:38;;;;;;;23.38;10.60;;;6.10;99.90;;;;;;5015677;28;20041;-85
2021/12/24 08:34:05;;;;;;;24.33;10.00;;;6.10;99.90;;;;;;5049993;28;20119;-87
2021/12/24 08:36:30;;;;;;;19.15;9.77;;;6.10;99.90;;;;;;5049125;28;20059;-86
2021/12/24 08:39:02;;;;;;;22.20;10.75;;;6.10;99.90;;;;;;5039454;28;20527;-86
2021/12/24 08:41:28;;;;;;;20.25;10.68;;;6.20;99.90;;;;;;5023016;28;20064;-86
2021/12/24 08:43:53;;;;;;;20.25;9.80;;;6.20;99.90;;;;;;5021340;28;20032;-85
2021/12/24 08:46:19;;;;;;;21.15;9.68;;;6.20;99.90;;;;;;5018283;28;20056;-85
2021/12/24 08:48:45;;;;;;;22.95;9.30;;;6.20;99.90;;;;;;5039136;28;20374;-86
2021/12/24 08:51:11;;;;;;;25.83;11.38;;;6.20;99.90;;;;;;4997621;28;20043;-86
2021/12/24 08:53:37;;;;;;;18.92;10.27;;;6.20;99.90;;;;;;5015887;28;20048;-86
2021/12/24 08:56:03;;;;;;;24.20;10.75;;;6.30;99.90;;;;;;5035066;28;20512;-86
2021/12/24 08:58:29;;;;;;;26.15;10.27;;;6.30;99.90;;;;;;5030213;28;20040;-85
2021/12/24 09:00:55;;;;;;;25.80;10.77;;;6.30;99.90;;;;;;5019256;28;20112;-86
2021/12/24 09:03:20;;;;;;;18.42;10.07;;;6.30;99.90;;;;;;5061735;28;20036;-86
2021/12/24 09:05:46;;;;;;;18.85;9.85;;;6.30;99.90;;;;;;5031188;28;20159;-86
2021/12/24 09:08:12;;;;;;;23.30;11.15;;;6.30;99.90;;;;;;5015075;28;20656;-85
2021/12/24 09:10:38;;;;;;;19.38;10.45;;;6.30;99.90;;;;;;5049320;28;20021;-85
2021/12/24 09:13:04;;;;;;;22.15;10.95;;;6.30;99.90;;;;;;5019373;28;20024;-85
2021/12/24 09:15:30;;;;;;;22.65;10.20;;;6.30;99.90;;;;;;5028132;28;20029;-85
2021/12/24 09:18:01;;;;;;;35.72;11.05;;;6.30;99.90;;;;;;5031239;28;20032;-85
2021/12/24 09:20:33;;;;;;;22.05;10.00;;;6.20;99.90;;;;;;5049366;28;20183;-85
2021/12/24 09:23:00;;;;;;;25.90;10.80;;;6.20;99.90;;;;;;5031434;28;20021;-85
2021/12/24 09:25:27;;;;;;;24.98;9.52;;;6.20;99.90;;;;;;5031920;28;20033;-85
2021/12/24 09:27:53;;;;;;;22.85;11.13;;;6.20;99.90;;;;;;5014108;28;20029;-85
2021/12/24 09:30:19;;;;;;;23.95;11.27;;;6.20;99.90;;;;;;5031029;28;20028;-85
2021/12/24 09:32:45;;;;;;;20.38;9.48;;;6.20;99.90;;;;;;5015011;28;20437;-84
2021/12/24 09:35:12;;;;;;;21.75;9.70;;;6.20;99.90;;;;;;5015465;28;20057;-84
2021/12/24 09:37:39;;;;;;;18.60;10.23;;;6.20;99.90;;;;;;5018934;28;20025;-85
2021/12/24 09:40:07;;;;;;;24.98;10.30;;;6.20;99.90;;;;;;5035678;28;20516;-84
2021/12/24 09:42:34;;;;;;;21.60;10.70;;;6.20;99.90;;;;;;5035626;28;20041;-84
2021/12/24 09:44:59;;;;;;;26.38;10.73;;;6.20;99.90;;;;;;5035310;28;20040;-85
2021/12/24 09:47:25;;;;;;;22.17;10.05;;;6.20;99.90;;;;;;5018257;28;20037;-85
2021/12/24 09:49:51;;;;;;;24.23;10.38;;;6.20;99.90;;;;;;5053315;28;20021;-85
2021/12/24 09:52:18;;;;;;;19.60;9.40;;;6.20;99.90;;;;;;5018463;28;20045;-85
2021/12/24 09:54:45;;;;;;;20.80;9.75;;;6.20;99.90;;;;;;5035252;28;20025;-85
2021/12/24 09:57:12;;;;;;;22.35;10.32;;;6.20;99.90;;;;;;5034946;28;20036;-85
2021/12/24 09:59:41;;;;;;;25.67;10.00;;;6.20;99.90;;;;;;5062517;28;20025;-84
2021/12/24 10:02:08;;;;;;;27.88;10.50;;;6.30;99.90;;;;;;5062795;28;20085;-84
2021/12/24 10:04:35;;;;;;;19.38;9.52;;;6.30;99.90;;;;;;5036695;28;20440;-85
2021/12/24 10:07:07;;;;;;;21.92;8.82;;;6.30;99.90;;;;;;5018556;28;20564;-84
2021/12/24 10:09:37;;;;;;;19.60;8.73;;;6.30;99.90;;;;;;5002207;28;20094;-85
2021/12/24 10:12:16;;;;;;;20.25;9.00;;;6.30;99.90;;;;;;5034989;28;20029;-85
2021/12/24 10:14:57;;;;;;;20.00;8.70;;;6.30;99.90;;;;;;5015746;28;20327;-85
2021/12/24 10:17:28;;;;;;;17.13;8.60;;;6.30;99.90;;;;;;5043708;28;20037;-85
2021/12/24 10:19:59;;;;;;;17.17;8.82;;;6.30;99.90;;;;;;5035708;28;20075;-85
2021/12/24 10:22:25;;;;;;;21.77;9.30;;;6.40;99.90;;;;;;5035326;28;20502;-85
2021/12/24 10:25:06;;;;;;;18.23;9.05;;;6.40;99.90;;;;;;5027651;28;20037;-85
2021/12/24 10:27:34;;;;;;;19.40;8.80;;;6.40;99.90;;;;;;5044620;28;20033;-84
2021/12/24 10:30:13;;;;;;;16.38;8.43;;;6.40;99.90;;;;;;5037922;28;20562;-84
2021/12/24 10:32:39;;;;;;;18.38;7.32;;;6.40;99.90;;;;;;5059834;28;20033;-84
2021/12/24 10:35:22;;;;;;;13.75;7.45;;;6.40;99.90;;;;;;5024461;28;20036;-85
2021/12/24 10:38:09;;;;;;;14.75;8.27;;;6.40;99.90;;;;;;5038278;28;20029;-86
2021/12/24 10:40:35;;;;;;;17.25;7.45;;;6.50;99.90;;;;;;5041127;28;20059;-84
2021/12/24 10:43:01;;;;;;;18.27;8.98;;;6.50;99.90;;;;;;5051836;28;20481;-84
2021/12/24 10:45:27;;;;;;;17.20;7.78;;;6.50;99.90;;;;;;5033970;28;20523;-84
2021/12/24 10:47:52;;;;;;;14.38;8.05;;;6.50;99.90;;;;;;5033141;28;20559;-84
2021/12/24 10:55:51;;;;;;;12.77;7.05;;;6.50;99.90;;;;;;5021250;28;20543;-84
2021/12/24 10:58:20;;;;;;;15.07;7.80;;;6.50;99.90;;;;;;5017148;28;20036;-84
2021/12/24 11:00:57;;;;;;;13.63;7.47;;;6.50;99.90;;;;;;5037978;28;20547;-84
2021/12/24 11:03:25;;;;;;;13.25;7.03;;;6.50;99.90;;;;;;5033937;28;20044;-84
2021/12/24 11:06:06;;;;;;;15.32;7.05;;;6.60;99.90;;;;;;5032990;28;20025;-84
2021/12/24 11:08:32;;;;;;;13.02;6.75;;;6.50;99.90;;;;;;5079292;22;20048;-85
2021/12/24 11:11:06;;;;;;;11.20;6.53;;;6.60;99.90;;;;;;5055148;28;20634;-87
2021/12/24 11:13:39;;;;;;;15.32;6.93;;;6.60;99.90;;;;;;5038572;28;20453;-86
2021/12/24 11:16:07;;;;;;;10.80;5.90;;;6.60;99.90;;;;;;5038655;28;20094;-88
2021/12/24 11:18:38;;;;;;;12.00;6.47;;;6.70;99.90;;;;;;5055932;28;20422;-86
2021/12/24 11:21:17;;;;;;;13.15;6.10;;;6.70;99.90;;;;;;5054525;28;20403;-86
2021/12/24 11:23:43;;;;;;;10.55;6.53;;;6.80;99.90;;;;;;5054462;28;20115;-86
2021/12/24 11:26:12;;;;;;;12.32;6.03;;;6.90;99.90;;;;;;5033956;28;20123;-86
2021/12/24 11:28:39;;;;;;;12.27;6.00;;;6.90;99.90;;;;;;5015283;28;20075;-86
2021/12/24 11:31:10;;;;;;;9.07;5.50;;;7.00;99.90;;;;;;5039414;28;20029;-87
2021/12/24 11:33:37;;;;;;;9.32;4.90;;;7.00;99.90;;;;;;5038267;28;20029;-87
2021/12/24 11:36:09;;;;;;;10.32;5.68;;;7.00;99.90;;;;;;5039838;28;20035;-86
2021/12/24 11:38:38;;;;;;;10.90;4.70;;;7.00;99.90;;;;;;5045489;28;20060;-87
2021/12/24 11:41:07;;;;;;;9.82;5.43;;;7.00;99.90;;;;;;5038125;28;20106;-87
2021/12/24 11:43:35;;;;;;;8.27;5.45;;;7.10;99.90;;;;;;5034311;28;20094;-86
2021/12/24 11:46:04;;;;;;;10.25;5.40;;;7.10;99.90;;;;;;5018214;28;20035;-85
2021/12/24 11:48:32;;;;;;;7.95;5.03;;;7.10;99.90;;;;;;5018474;28;20053;-88
2021/12/24 11:51:13;;;;;;;11.77;5.57;;;7.10;99.90;;;;;;5034444;28;20032;-86
2021/12/24 11:53:39;;;;;;;12.60;6.43;;;7.10;99.90;;;;;;5026327;28;20024;-88
2021/12/24 11:56:07;;;;;;;12.65;6.43;;;7.20;99.90;;;;;;5073799;28;20024;-87
2021/12/24 11:58:45;;;;;;;12.15;6.57;;;7.20;99.90;;;;;;5073700;28;20027;-86
2021/12/24 12:01:14;;;;;;;19.05;8.18;;;7.10;99.90;;;;;;5057686;28;20035;-86
2021/12/24 12:03:46;;;;;;;15.38;6.95;;;7.10;99.90;;;;;;5057888;28;20147;-86
2021/12/24 12:06:34;;;;;;;10.45;5.80;;;7.10;99.90;;;;;;5039191;28;20028;-86
2021/12/24 12:09:06;;;;;;;14.52;5.30;;;7.10;99.90;;;;;;5053046;28;20387;-87
2021/12/24 12:11:35;;;;;;;11.98;6.10;;;7.10;99.90;;;;;;5003284;28;20586;-84
2021/12/24 12:14:04;;;;;;;11.90;6.22;;;7.00;99.90;;;;;;5017093;28;20505;-85
2021/12/24 12:16:39;;;;;;;10.15;5.82;;;7.00;99.90;;;;;;5017868;28;20029;-85
2021/12/24 12:19:21;;;;;;;14.65;6.65;;;7.00;99.90;;;;;;5052857;28;20021;-86
2021/12/24 12:25:29;;;;;;;13.82;6.82;;;7.00;99.90;;;;;;5036000;28;20080;-85
2021/12/24 12:27:58;;;;;;;13.35;6.38;;;7.00;99.90;;;;;;5034744;28;20056;-85
2021/12/24 12:30:37;;;;;;;12.25;6.07;;;7.00;99.90;;;;;;5030826;28;20029;-85
2021/12/24 12:33:29;;;;;;;12.18;6.30;;;7.00;99.90;;;;;;5043842;28;20052;-85
2021/12/24 12:35:58;;;;;;;10.75;6.53;;;6.90;99.90;;;;;;5041486;28;20372;-86
2021/12/24 12:38:39;;;;;;;14.98;6.97;;;6.90;99.90;;;;;;5060417;28;20020;-86
2021/12/24 12:41:32;;;;;;;16.05;7.82;;;6.90;99.90;;;;;;5047820;28;20086;-86
2021/12/24 12:44:07;;;;;;;11.48;6.43;;;6.90;99.90;;;;;;5041468;28;20025;-86
2021/12/24 12:46:43;;;;;;;14.32;6.80;;;6.90;99.90;;;;;;5056363;28;20448;-85
2021/12/24 12:49:16;;;;;;;11.75;6.45;;;7.00;99.90;;;;;;5067336;28;20048;-85
2021/12/24 12:51:58;;;;;;;12.55;6.05;;;7.00;99.90;;;;;;5040591;28;20051;-86
2021/12/24 12:54:31;;;;;;;12.63;5.70;;;7.00;99.90;;;;;;5028779;28;20127;-84
2021/12/24 12:57:13;;;;;;;12.63;6.45;;;7.00;99.90;;;;;;5056735;28;20024;-85
2021/12/24 12:59:40;;;;;;;14.85;7.10;;;7.00;99.90;;;;;;5069253;28;20024;-86
2021/12/24 13:02:05;;;;;;;12.43;6.22;;;7.00;99.90;;;;;;5057418;28;20032;-86
2021/12/24 13:04:31;;;;;;;12.18;6.85;;;7.00;99.90;;;;;;5055762;28;20088;-85
2021/12/24 13:06:58;;;;;;;14.25;7.40;;;7.00;99.90;;;;;;5032762;28;20028;-83
2021/12/24 13:09:33;;;;;;;13.25;7.05;;;7.00;99.90;;;;;;5050735;28;20108;-84
2021/12/24 13:12:01;;;;;;;14.70;7.50;;;7.00;99.90;;;;;;5011413;28;20146;-85
2021/12/24 13:14:30;;;;;;;19.55;8.23;;;7.00;99.90;;;;;;5039604;28;20031;-85
2021/12/24 13:24:55;;;;;;;17.50;10.93;;;7.00;99.90;;;;;;5075322;28;20088;-84
2021/12/24 13:27:28;;;;;;;20.60;9.88;;;7.00;99.90;;;;;;5055198;28;20032;-85
2021/12/24 13:30:09;;;;;;;19.52;8.60;;;7.00;99.90;;;;;;5052512;28;20048;-84
2021/12/24 13:32:58;;;;;;;16.10;9.20;;;7.00;99.90;;;;;;5053358;28;20027;-84
2021/12/24 13:35:50;;;;;;;19.30;10.23;;;7.00;99.90;;;;;;5052229;28;20032;-84
2021/12/24 13:38:19;;;;;;;29.02;12.43;;;6.90;99.90;;;;;;5032614;28;20037;-84
2021/12/24 13:40:48;;;;;;;31.98;13.48;;;6.90;99.90;;;;;;5053348;28;20013;-84
2021/12/24 13:43:14;;;;;;;27.20;13.82;;;6.90;99.90;;;;;;5018289;28;20047;-84
2021/12/24 13:45:44;;;;;;;29.40;13.65;;;7.00;99.90;;;;;;5017699;28;20116;-84
2021/12/24 13:48:22;;;;;;;23.42;11.18;;;7.00;99.90;;;;;;5033871;28;20033;-84
2021/12/24 13:56:51;;;;;;;18.63;9.15;;;7.00;99.90;;;;;;5072509;28;20154;-85
2021/12/24 13:59:23;;;;;;;17.42;8.90;;;7.10;99.90;;;;;;5037247;28;20033;-83
2021/12/24 14:01:49;;;;;;;21.42;10.00;;;7.10;99.90;;;;;;5053362;28;20208;-83
2021/12/24 14:04:17;;;;;;;20.65;9.23;;;7.10;99.90;;;;;;5057588;28;20036;-84
2021/12/24 14:06:46;;;;;;;22.60;9.77;;;7.10;99.90;;;;;;5052658;28;20031;-84
2021/12/24 14:09:31;;;;;;;21.65;10.18;;;7.10;99.90;;;;;;5024432;28;20029;-83
2021/12/24 14:11:58;;;;;;;19.00;9.98;;;7.10;99.90;;;;;;5022008;28;20028;-84
2021/12/24 14:14:37;;;;;;;19.20;9.05;;;7.10;99.90;;;;;;5059998;28;20021;-84
2021/12/24 14:19:45;;;;;;;24.20;10.85;;;7.10;99.90;;;;;;5052504;28;20029;-84
2021/12/24 14:22:13;;;;;;;19.55;9.35;;;7.10;99.90;;;;;;5038833;28;20094;-83
2021/12/24 14:24:54;;;;;;;24.00;8.60;;;7.10;99.90;;;;;;5057160;28;20517;-84
2021/12/24 14:27:22;;;;;;;14.98;7.97;;;7.10;99.90;;;;;;5039950;28;20404;-84
2021/12/24 14:29:56;;;;;;;13.90;7.68;;;7.10;99.90;;;;;;5007104;28;20036;-86
2021/12/24 14:32:35;;;;;;;16.38;7.13;;;7.10;99.90;;;;;;5043328;28;20035;-84
2021/12/24 14:35:24;;;;;;;11.90;7.10;;;7.10;99.90;;;;;;5072899;28;20051;-84
2021/12/24 14:38:15;;;;;;;16.77;6.80;;;7.10;99.90;;;;;;5051475;28;20123;-84
2021/12/24 14:40:41;;;;;;;15.07;5.80;;;7.00;99.90;;;;;;5068390;28;20471;-84
2021/12/24 14:43:18;;;;;;;9.93;5.38;;;7.00;99.90;;;;;;5039130;28;20510;-84
2021/12/24 14:45:48;;;;;;;10.07;5.82;;;7.00;99.90;;;;;;5056597;28;20023;-87
2021/12/24 14:48:29;;;;;;;7.18;5.20;;;7.00;99.90;;;;;;5039591;28;20035;-86
2021/12/24 14:51:06;;;;;;;10.55;5.40;;;7.00;99.90;;;;;;5038786;28;20430;-85
2021/12/24 14:53:42;;;;;;;7.97;4.22;;;7.00;99.90;;;;;;5042839;28;20028;-85